createdAt,value
2022-08-29T00:00:17.759Z,19.69
2022-08-29T00:02:44.348Z,19.69
2022-08-29T00:05:11.634Z,19.66
2022-08-29T00:07:37.931Z,19.65
2022-08-29T00:10:04.221Z,19.64
2022-08-29T00:12:30.600Z,19.63
2022-08-29T00:14:56.986Z,19.61
2022-08-29T00:17:23.325Z,19.60
2022-08-29T00:19:49.856Z,19.58
2022-08-29T00:22:16.247Z,19.57
2022-08-29T00:24:44.562Z,19.57
2022-08-29T00:27:10.834Z,19.56
2022-08-29T00:29:37.647Z,19.55
2022-08-29T00:32:03.942Z,19.52
2022-08-29T00:34:31.286Z,19.51
2022-08-29T00:36:57.624Z,19.51
2022-08-29T00:39:24.250Z,19.50
2022-08-29T00:41:50.510Z,19.50
2022-08-29T00:44:16.959Z,19.49
2022-08-29T00:46:45.073Z,19.48
2022-08-29T00:49:11.368Z,19.47
2022-08-29T00:51:37.638Z,19.45
2022-08-29T00:54:03.903Z,19.44
2022-08-29T00:56:30.152Z,19.43
2022-08-29T00:58:56.373Z,19.42
2022-08-29T01:01:22.722Z,19.40
2022-08-29T01:03:49.039Z,19.39
2022-08-29T01:06:15.308Z,19.37
2022-08-29T01:08:41.549Z,19.35
2022-08-29T01:11:09.656Z,19.33
2022-08-29T01:13:35.969Z,19.32
2022-08-29T01:16:02.334Z,19.30
2022-08-29T01:18:28.632Z,19.28
2022-08-29T01:20:56.740Z,19.28
2022-08-29T01:23:24.359Z,19.25
2022-08-29T01:25:50.611Z,19.24
2022-08-29T01:28:16.793Z,19.23
2022-08-29T01:30:43.631Z,19.21
2022-08-29T01:33:09.848Z,19.20
2022-08-29T01:35:36.482Z,19.17
2022-08-29T01:38:02.856Z,19.15
2022-08-29T01:40:29.241Z,19.14
2022-08-29T01:42:55.557Z,19.13
2022-08-29T01:48:12.161Z,19.09
2022-08-29T01:50:38.465Z,19.06
2022-08-29T01:53:04.677Z,19.05
2022-08-29T01:55:31.055Z,19.01
2022-08-29T01:57:57.459Z,19.00
2022-08-29T02:00:23.672Z,19.00
2022-08-29T02:02:49.940Z,18.97
2022-08-29T02:05:16.326Z,18.96
2022-08-29T02:07:42.995Z,18.93
2022-08-29T02:10:09.207Z,18.92
2022-08-29T02:12:37.333Z,18.91
2022-08-29T02:15:03.596Z,18.90
2022-08-29T02:17:29.911Z,18.87
2022-08-29T02:19:56.258Z,18.87
2022-08-29T02:22:22.482Z,18.86
2022-08-29T02:24:48.716Z,18.84
2022-08-29T02:27:15.405Z,18.82
2022-08-29T02:29:42.172Z,18.80
2022-08-29T02:32:08.475Z,18.79
2022-08-29T02:34:34.674Z,18.77
2022-08-29T02:37:01.456Z,18.76
2022-08-29T02:39:27.690Z,18.75
2022-08-29T02:41:54.010Z,18.74
2022-08-29T02:44:20.360Z,18.73
2022-08-29T02:46:46.983Z,18.71
2022-08-29T02:49:13.322Z,18.69
2022-08-29T02:51:40.550Z,18.68
2022-08-29T02:54:07.007Z,18.65
2022-08-29T02:56:33.306Z,18.64
2022-08-29T02:58:59.540Z,18.61
2022-08-29T03:01:25.817Z,18.60
2022-08-29T03:03:52.155Z,18.60
2022-08-29T03:06:18.487Z,18.59
2022-08-29T03:08:44.715Z,18.56
2022-08-29T03:11:11.022Z,18.55
2022-08-29T03:13:37.215Z,18.53
2022-08-29T03:16:03.436Z,18.51
2022-08-29T03:18:29.667Z,18.49
2022-08-29T03:20:56.045Z,18.48
2022-08-29T03:23:22.334Z,18.46
2022-08-29T03:25:53.071Z,18.44
2022-08-29T03:28:19.377Z,18.44
2022-08-29T03:30:45.619Z,18.43
2022-08-29T03:33:12.288Z,18.42
2022-08-29T03:35:38.626Z,18.40
2022-08-29T03:38:07.171Z,18.40
2022-08-29T03:40:33.617Z,18.38
2022-08-29T03:43:01.655Z,18.37
2022-08-29T03:45:27.992Z,18.37
2022-08-29T03:47:54.406Z,18.35
2022-08-29T03:50:22.052Z,18.35
2022-08-29T03:52:48.309Z,18.34
2022-08-29T03:55:14.542Z,18.32
2022-08-29T03:57:40.810Z,18.32
2022-08-29T04:00:07.050Z,18.29
2022-08-29T04:02:33.365Z,18.28
2022-08-29T04:05:00.650Z,18.27
2022-08-29T04:07:28.972Z,18.27
2022-08-29T04:09:55.376Z,18.25
2022-08-29T04:12:21.553Z,18.23
2022-08-29T04:14:47.851Z,18.22
2022-08-29T04:17:14.288Z,18.21
2022-08-29T04:19:40.581Z,18.20
2022-08-29T04:22:07.125Z,18.19
2022-08-29T04:24:33.644Z,18.18
2022-08-29T04:27:00.108Z,18.17
2022-08-29T04:29:26.463Z,18.16
2022-08-29T04:31:55.638Z,18.15
2022-08-29T04:34:21.915Z,18.15
2022-08-29T04:36:49.413Z,18.15
2022-08-29T04:39:15.750Z,18.15
2022-08-29T04:41:42.092Z,18.21
2022-08-29T04:44:09.126Z,18.27
2022-08-29T04:46:35.507Z,18.32
2022-08-29T04:49:04.274Z,18.39
2022-08-29T04:51:31.925Z,18.45
2022-08-29T04:53:59.285Z,18.53
2022-08-29T04:56:25.615Z,18.60
2022-08-29T04:58:51.955Z,18.69
2022-08-29T05:01:23.364Z,18.77
2022-08-29T05:03:50.091Z,18.87
2022-08-29T05:06:16.588Z,18.95
2022-08-29T05:08:45.015Z,19.06
2022-08-29T05:11:11.620Z,19.17
2022-08-29T05:13:39.070Z,19.26
2022-08-29T05:16:09.139Z,19.39
2022-08-29T05:18:36.119Z,19.49
2022-08-29T05:21:06.502Z,19.60
2022-08-29T05:23:33.224Z,19.72
2022-08-29T05:26:00.040Z,19.85
2022-08-29T05:28:26.669Z,19.99
2022-08-29T05:30:53.794Z,20.11
2022-08-29T05:33:22.986Z,20.25
2022-08-29T05:35:51.951Z,20.32
2022-08-29T05:38:18.766Z,20.42
2022-08-29T05:40:45.401Z,20.54
2022-08-29T05:43:11.974Z,20.66
2022-08-29T05:45:39.323Z,20.74
2022-08-29T05:48:06.024Z,20.74
2022-08-29T05:50:32.237Z,20.75
2022-08-29T05:52:59.035Z,20.79
2022-08-29T05:58:16.248Z,21.12
2022-08-29T06:00:43.100Z,21.26
2022-08-29T06:03:09.669Z,21.24
2022-08-29T06:05:35.981Z,21.20
2022-08-29T06:08:05.460Z,21.16
2022-08-29T06:10:34.120Z,21.24
2022-08-29T06:13:03.835Z,21.46
2022-08-29T06:15:32.446Z,21.75
2022-08-29T06:17:59.384Z,21.91
2022-08-29T06:20:26.827Z,22.02
2022-08-29T06:22:56.231Z,22.12
2022-08-29T06:25:38.448Z,22.24
2022-08-29T06:28:06.219Z,22.32
2022-08-29T06:30:39.793Z,22.33
2022-08-29T06:33:07.116Z,22.39
2022-08-29T06:35:37.675Z,22.51
2022-08-29T06:38:04.057Z,22.66
2022-08-29T06:40:30.712Z,22.77
2022-08-29T06:42:57.478Z,22.70
2022-08-29T06:45:25.209Z,22.66
2022-08-29T06:47:53.825Z,22.66
2022-08-29T06:50:20.186Z,22.72
2022-08-29T06:52:47.041Z,22.88
2022-08-29T06:55:14.739Z,22.99
2022-08-29T06:57:41.296Z,23.09
2022-08-29T07:00:13.624Z,23.18
2022-08-29T07:02:52.362Z,23.29
2022-08-29T07:05:21.893Z,23.48
2022-08-29T07:07:48.687Z,23.61
2022-08-29T07:10:21.543Z,23.69
2022-08-29T07:12:48.731Z,23.81
2022-08-29T07:15:16.130Z,23.96
2022-08-29T07:17:42.583Z,24.18
2022-08-29T07:20:13.248Z,24.35
2022-08-29T07:22:45.483Z,24.47
2022-08-29T07:25:16.756Z,24.61
2022-08-29T07:27:48.119Z,24.58
2022-08-29T07:30:19.829Z,24.54
2022-08-29T07:32:50.457Z,24.54
2022-08-29T07:35:19.894Z,24.60
2022-08-29T07:38:01.836Z,24.78
2022-08-29T07:40:29.615Z,24.97
2022-08-29T07:42:56.280Z,25.17
2022-08-29T07:45:22.924Z,25.31
2022-08-29T07:47:50.347Z,25.44
2022-08-29T07:50:18.341Z,25.62
2022-08-29T07:52:45.743Z,25.82
2022-08-29T07:55:18.106Z,26.02
2022-08-29T07:57:45.143Z,26.19
2022-08-29T08:00:11.503Z,26.41
2022-08-29T08:02:42.195Z,26.63
2022-08-29T08:05:08.602Z,26.89
2022-08-29T08:07:36.330Z,27.06
2022-08-29T08:10:10.488Z,27.20
2022-08-29T08:12:40.358Z,27.29
2022-08-29T08:15:06.957Z,27.34
2022-08-29T08:17:34.571Z,27.34
2022-08-29T08:20:01.162Z,27.26
2022-08-29T08:22:27.417Z,27.48
2022-08-29T08:24:55.801Z,27.56
2022-08-29T08:27:22.152Z,27.37
2022-08-29T08:29:48.962Z,27.47
2022-08-29T08:32:15.830Z,27.60
2022-08-29T08:34:43.438Z,27.76
2022-08-29T08:37:09.749Z,27.72
2022-08-29T08:39:36.526Z,27.68
2022-08-29T08:42:02.866Z,28.05
2022-08-29T08:44:30.617Z,28.23
2022-08-29T08:47:04.246Z,28.07
2022-08-29T08:49:30.490Z,28.28
2022-08-29T08:51:56.814Z,28.18
2022-08-29T08:54:24.941Z,27.66
2022-08-29T08:56:51.294Z,27.37
2022-08-29T08:59:17.583Z,27.20
2022-08-29T09:01:43.960Z,27.41
2022-08-29T09:04:10.423Z,27.17
2022-08-29T09:06:38.037Z,26.97
2022-08-29T09:09:08.167Z,26.88
2022-08-29T09:11:38.399Z,26.87
2022-08-29T09:14:07.692Z,26.68
2022-08-29T09:16:34.042Z,26.55
2022-08-29T09:19:00.698Z,26.50
2022-08-29T09:21:44.410Z,26.45
2022-08-29T09:24:14.795Z,26.40
2022-08-29T09:26:42.891Z,26.38
2022-08-29T09:29:09.378Z,26.38
2022-08-29T09:31:38.093Z,26.40
2022-08-29T09:34:04.647Z,26.39
2022-08-29T09:36:31.079Z,26.38
2022-08-29T09:38:57.429Z,26.41
2022-08-29T09:41:27.061Z,26.42
2022-08-29T09:44:06.542Z,26.38
2022-08-29T09:46:36.609Z,26.32
2022-08-29T09:49:03.984Z,26.28
2022-08-29T09:51:30.405Z,26.29
2022-08-29T09:53:57.374Z,26.30
2022-08-29T09:56:24.895Z,26.33
2022-08-29T09:58:51.771Z,26.34
2022-08-29T10:01:23.117Z,26.35
2022-08-29T10:03:59.472Z,26.33
2022-08-29T10:06:25.856Z,26.33
2022-08-29T10:09:02.472Z,26.33
2022-08-29T10:11:30.956Z,26.34
2022-08-29T10:14:03.284Z,26.34
2022-08-29T10:16:30.271Z,26.36
2022-08-29T10:18:59.633Z,26.36
2022-08-29T10:21:27.275Z,26.37
2022-08-29T10:23:56.532Z,26.38
2022-08-29T10:26:23.148Z,26.39
2022-08-29T10:28:51.995Z,26.40
2022-08-29T10:31:20.486Z,26.42
2022-08-29T10:33:48.147Z,26.43
2022-08-29T10:36:20.354Z,26.40
2022-08-29T10:38:47.670Z,26.41
2022-08-29T10:41:14.035Z,26.45
2022-08-29T10:43:42.211Z,26.42
2022-08-29T10:46:08.616Z,26.43
2022-08-29T10:48:36.054Z,26.41
2022-08-29T10:51:04.993Z,26.38
2022-08-29T10:53:32.618Z,26.38
2022-08-29T10:56:01.050Z,26.36
2022-08-29T10:58:29.588Z,26.35
2022-08-29T11:00:58.261Z,26.37
2022-08-29T11:03:28.844Z,26.34
2022-08-29T11:05:57.281Z,26.28
2022-08-29T11:08:24.130Z,26.26
2022-08-29T11:10:50.754Z,26.27
2022-08-29T11:13:17.287Z,26.32
2022-08-29T11:15:43.932Z,26.36
2022-08-29T11:18:12.322Z,26.35
2022-08-29T11:20:44.260Z,26.30
2022-08-29T11:23:11.622Z,26.21
2022-08-29T11:25:38.008Z,26.14
2022-08-29T11:28:04.600Z,26.12
2022-08-29T11:30:36.312Z,26.12
2022-08-29T11:33:05.856Z,26.14
2022-08-29T11:35:39.518Z,26.19
2022-08-29T11:38:06.564Z,26.21
2022-08-29T11:40:48.796Z,26.23
2022-08-29T11:43:22.905Z,26.23
2022-08-29T11:45:49.404Z,26.23
2022-08-29T11:48:15.752Z,26.24
2022-08-29T11:50:43.377Z,26.22
2022-08-29T11:53:24.679Z,26.21
2022-08-29T11:56:45.131Z,26.21
2022-08-29T11:59:03.129Z,26.22
2022-08-29T12:01:30.096Z,26.24
2022-08-29T12:04:05.314Z,26.25
2022-08-29T12:06:39.302Z,26.27
2022-08-29T12:09:14.857Z,26.30
2022-08-29T12:11:45.942Z,26.32
2022-08-29T12:14:15.946Z,26.34
2022-08-29T12:16:54.239Z,26.35
2022-08-29T12:19:20.846Z,26.33
2022-08-29T12:21:47.260Z,26.30
2022-08-29T12:24:16.382Z,26.34
2022-08-29T12:26:42.677Z,26.38
2022-08-29T12:29:10.523Z,26.39
2022-08-29T12:31:51.451Z,26.41
2022-08-29T12:34:23.400Z,26.43
2022-08-29T12:36:52.162Z,26.44
2022-08-29T12:39:19.807Z,26.45
2022-08-29T12:41:48.479Z,26.43
2022-08-29T12:44:15.388Z,26.44
2022-08-29T12:46:41.774Z,26.46
2022-08-29T12:49:08.560Z,26.48
2022-08-29T12:51:35.542Z,26.48
2022-08-29T12:54:01.862Z,26.50
2022-08-29T12:56:28.219Z,26.50
2022-08-29T12:58:54.593Z,26.50
2022-08-29T13:01:21.894Z,26.52
2022-08-29T13:03:51.294Z,26.54
2022-08-29T13:06:17.670Z,26.55
2022-08-29T13:08:44.479Z,26.57
2022-08-29T13:11:13.844Z,26.56
2022-08-29T13:13:40.454Z,26.54
2022-08-29T13:16:06.886Z,26.50
2022-08-29T13:22:01.188Z,26.47
2022-08-29T13:24:27.471Z,26.48
2022-08-29T13:27:04.836Z,26.49
2022-08-29T13:32:00.431Z,26.48
2022-08-29T13:34:30.005Z,26.49
2022-08-29T13:36:59.536Z,26.48
2022-08-29T13:39:28.338Z,26.50
2022-08-29T13:41:54.701Z,26.51
2022-08-29T13:44:22.261Z,26.50
2022-08-29T13:46:48.881Z,26.52
2022-08-29T13:49:16.082Z,26.52
2022-08-29T13:51:45.231Z,26.52
2022-08-29T13:54:13.382Z,26.48
2022-08-29T13:56:39.660Z,26.41
2022-08-29T13:59:09.265Z,26.37
2022-08-29T14:04:38.049Z,26.37
2022-08-29T14:07:06.171Z,26.35
2022-08-29T14:09:32.492Z,26.35
2022-08-29T14:11:59.322Z,26.33
2022-08-29T14:14:26.176Z,26.30
2022-08-29T14:16:52.563Z,26.23
2022-08-29T14:19:19.895Z,26.22
2022-08-29T14:21:47.357Z,26.19
2022-08-29T14:24:16.109Z,26.18
2022-08-29T14:26:45.006Z,26.17
2022-08-29T14:29:11.495Z,26.18
2022-08-29T14:31:37.918Z,26.15
2022-08-29T14:34:04.788Z,26.15
2022-08-29T14:36:32.004Z,26.17
2022-08-29T14:38:59.470Z,26.17
2022-08-29T14:41:25.722Z,26.17
2022-08-29T14:43:51.983Z,26.16
2022-08-29T14:46:18.455Z,26.15
2022-08-29T14:48:44.774Z,26.15
2022-08-29T14:51:11.920Z,26.13
2022-08-29T14:53:38.447Z,26.11
2022-08-29T14:56:37.360Z,26.10
2022-08-29T14:59:22.924Z,26.07
2022-08-29T15:01:54.137Z,26.08
2022-08-29T15:04:21.827Z,26.08
2022-08-29T15:07:02.925Z,26.08
2022-08-29T15:09:30.166Z,26.08
2022-08-29T15:11:56.437Z,26.08
2022-08-29T15:14:26.430Z,26.06
2022-08-29T15:16:52.733Z,26.06
2022-08-29T15:22:05.772Z,26.04
2022-08-29T15:24:32.216Z,26.04
2022-08-29T15:27:01.498Z,26.03
2022-08-29T15:29:28.065Z,26.02
2022-08-29T15:31:54.381Z,26.01
2022-08-29T15:34:20.735Z,25.99
2022-08-29T15:36:47.399Z,25.96
2022-08-29T15:39:13.814Z,25.92
2022-08-29T15:41:41.854Z,25.89
2022-08-29T15:44:11.039Z,25.87
2022-08-29T15:46:40.974Z,25.88
2022-08-29T15:49:17.068Z,25.88
2022-08-29T15:51:43.592Z,25.88
2022-08-29T15:54:09.828Z,25.85
2022-08-29T15:56:36.417Z,25.83
2022-08-29T15:59:02.847Z,25.82
2022-08-29T16:01:29.433Z,25.80
2022-08-29T16:03:55.817Z,25.77
2022-08-29T16:06:23.914Z,25.74
2022-08-29T16:08:50.179Z,25.71
2022-08-29T16:11:24.112Z,25.70
2022-08-29T16:13:58.087Z,25.69
2022-08-29T16:16:35.922Z,25.67
2022-08-29T16:19:02.177Z,25.68
2022-08-29T16:21:29.515Z,25.67
2022-08-29T16:23:55.832Z,25.68
2022-08-29T16:26:22.071Z,25.68
2022-08-29T16:28:48.451Z,25.66
2022-08-29T16:31:15.803Z,25.65
2022-08-29T16:33:43.548Z,25.66
2022-08-29T16:36:09.892Z,25.66
2022-08-29T16:38:36.133Z,25.65
2022-08-29T16:41:02.455Z,25.63
2022-08-29T16:43:28.727Z,25.62
2022-08-29T16:45:56.259Z,25.60
2022-08-29T16:48:22.984Z,25.59
2022-08-29T16:50:50.229Z,25.58
2022-08-29T16:53:17.019Z,25.56
2022-08-29T16:55:44.946Z,25.56
2022-08-29T16:58:12.808Z,25.55
2022-08-29T17:00:39.265Z,25.54
2022-08-29T17:03:05.696Z,25.51
2022-08-29T17:05:31.975Z,25.49
2022-08-29T17:07:59.864Z,25.48
2022-08-29T17:10:27.047Z,25.46
2022-08-29T17:12:55.235Z,25.45
2022-08-29T17:15:22.023Z,25.43
2022-08-29T17:17:50.169Z,25.42
2022-08-29T17:20:16.459Z,25.40
2022-08-29T17:22:44.059Z,25.39
2022-08-29T17:25:10.325Z,25.38
2022-08-29T17:27:36.629Z,25.36
2022-08-29T17:30:03.730Z,25.34
2022-08-29T17:32:30.502Z,25.32
2022-08-29T17:34:56.961Z,25.30
2022-08-29T17:37:23.249Z,25.30
2022-08-29T17:39:49.547Z,25.27
2022-08-29T17:42:16.286Z,25.26
2022-08-29T17:44:44.162Z,25.24
2022-08-29T17:47:12.011Z,25.22
2022-08-29T17:49:38.638Z,25.21
2022-08-29T17:52:04.947Z,25.19
2022-08-29T17:54:37.131Z,25.18
2022-08-29T17:57:03.472Z,25.15
2022-08-29T17:59:30.486Z,25.13
2022-08-29T18:01:56.960Z,25.10
2022-08-29T18:04:23.500Z,25.08
2022-08-29T18:06:49.920Z,25.05
2022-08-29T18:09:17.154Z,25.03
2022-08-29T18:11:43.668Z,25.00
2022-08-29T18:14:10.005Z,24.97
2022-08-29T18:16:39.121Z,24.94
2022-08-29T18:19:05.898Z,24.91
2022-08-29T18:21:32.168Z,24.89
2022-08-29T18:23:58.627Z,24.85
2022-08-29T18:26:27.899Z,24.83
2022-08-29T18:28:54.213Z,24.80
2022-08-29T18:31:20.498Z,24.78
2022-08-29T18:34:00.133Z,24.75
2022-08-29T18:36:27.137Z,24.70
2022-08-29T18:38:53.759Z,24.67
2022-08-29T18:41:20.002Z,24.64
2022-08-29T18:43:47.291Z,24.60
2022-08-29T18:46:13.602Z,24.58
2022-08-29T18:48:41.404Z,24.53
2022-08-29T18:51:07.681Z,24.51
2022-08-29T18:53:34.015Z,24.47
2022-08-29T18:56:00.292Z,24.45
2022-08-29T18:58:26.690Z,24.42
2022-08-29T19:00:54.117Z,24.39
2022-08-29T19:03:20.874Z,24.37
2022-08-29T19:05:47.523Z,24.34
2022-08-29T19:08:14.196Z,24.31
2022-08-29T19:10:40.616Z,24.28
2022-08-29T19:13:06.893Z,24.26
2022-08-29T19:15:33.394Z,24.24
2022-08-29T19:18:05.798Z,24.22
2022-08-29T19:20:32.086Z,24.19
2022-08-29T19:22:58.527Z,24.17
2022-08-29T19:25:24.798Z,24.14
2022-08-29T19:27:51.072Z,24.12
2022-08-29T19:30:17.542Z,24.10
2022-08-29T19:32:43.853Z,24.07
2022-08-29T19:35:10.197Z,24.05
2022-08-29T19:37:36.951Z,24.01
2022-08-29T19:40:04.047Z,23.99
2022-08-29T19:42:31.517Z,23.96
2022-08-29T19:45:00.549Z,23.93
2022-08-29T19:47:26.853Z,23.91
2022-08-29T19:49:54.402Z,23.89
2022-08-29T19:52:20.640Z,23.87
2022-08-29T19:54:47.074Z,23.84
2022-08-29T19:57:16.411Z,23.81
2022-08-29T19:59:43.045Z,23.77
2022-08-29T20:02:10.152Z,23.75
2022-08-29T20:04:37.879Z,23.73
2022-08-29T20:07:05.241Z,23.69
2022-08-29T20:09:31.840Z,23.67
2022-08-29T20:11:59.517Z,23.62
2022-08-29T20:14:27.973Z,23.57
2022-08-29T20:16:54.406Z,23.53
2022-08-29T20:19:20.753Z,23.48
2022-08-29T20:21:47.065Z,23.44
2022-08-29T20:24:15.574Z,23.38
2022-08-29T20:26:43.908Z,23.32
2022-08-29T20:29:10.195Z,23.28
2022-08-29T20:31:39.402Z,23.23
2022-08-29T20:34:06.332Z,23.18
2022-08-29T20:36:32.589Z,23.14
2022-08-29T20:38:59.020Z,23.08
2022-08-29T20:41:25.314Z,23.03
2022-08-29T20:43:51.571Z,22.98
2022-08-29T20:46:25.408Z,22.93
2022-08-29T20:48:51.937Z,22.88
2022-08-29T20:51:20.914Z,22.83
2022-08-29T20:53:47.154Z,22.79
2022-08-29T20:56:13.891Z,22.74
2022-08-29T20:58:40.326Z,22.69
2022-08-29T21:01:06.643Z,22.65
2022-08-29T21:03:32.974Z,22.62
2022-08-29T21:06:01.873Z,22.56
2022-08-29T21:08:31.272Z,22.53
2022-08-29T21:10:57.560Z,22.50
2022-08-29T21:13:24.105Z,22.50
2022-08-29T21:15:51.059Z,22.51
2022-08-29T21:18:20.383Z,22.53
2022-08-29T21:20:54.217Z,22.53
2022-08-29T21:23:24.536Z,22.51
2022-08-29T21:25:51.997Z,22.47
2022-08-29T21:28:18.442Z,22.33
2022-08-29T21:30:45.624Z,22.43
2022-08-29T21:33:12.281Z,22.39
2022-08-29T21:35:38.717Z,22.36
2022-08-29T21:38:05.375Z,22.33
2022-08-29T21:40:31.898Z,22.32
2022-08-29T21:42:58.201Z,22.29
2022-08-29T21:45:24.710Z,22.26
2022-08-29T21:47:51.126Z,22.24
2022-08-29T21:50:17.532Z,22.21
2022-08-29T21:52:44.117Z,22.19
2022-08-29T21:55:11.023Z,22.18
2022-08-29T21:57:37.301Z,22.15
2022-08-29T22:00:03.678Z,22.13
2022-08-29T22:02:31.596Z,22.11
2022-08-29T22:04:58.199Z,22.08
2022-08-29T22:07:26.206Z,22.07
2022-08-29T22:09:52.767Z,22.05
2022-08-29T22:12:19.055Z,22.03
2022-08-29T22:14:46.608Z,21.99
2022-08-29T22:17:14.512Z,21.98
2022-08-29T22:19:40.824Z,21.95
2022-08-29T22:22:07.158Z,21.93
2022-08-29T22:24:33.794Z,21.91
2022-08-29T22:27:00.454Z,21.89
2022-08-29T22:29:27.949Z,21.87
2022-08-29T22:31:54.252Z,21.85
2022-08-29T22:34:20.685Z,21.82
2022-08-29T22:36:46.891Z,21.81
2022-08-29T22:39:13.891Z,21.79
2022-08-29T22:41:44.277Z,21.77
2022-08-29T22:44:59.519Z,21.75
2022-08-29T22:47:02.216Z,21.73
2022-08-29T22:49:32.933Z,21.71
2022-08-29T22:51:59.756Z,21.68
2022-08-29T22:54:26.999Z,21.67
2022-08-29T22:56:54.606Z,21.66
2022-08-29T22:59:20.971Z,21.65
2022-08-29T23:01:47.448Z,21.62
2022-08-29T23:04:14.912Z,21.60
2022-08-29T23:06:41.191Z,21.59
2022-08-29T23:09:10.610Z,21.57
2022-08-29T23:11:38.786Z,21.57
2022-08-29T23:14:05.878Z,21.55
2022-08-29T23:16:32.566Z,21.55
2022-08-29T23:18:58.835Z,21.55
2022-08-29T23:21:26.177Z,21.52
2022-08-29T23:23:53.154Z,21.51
2022-08-29T23:26:20.376Z,21.50
2022-08-29T23:28:47.031Z,21.50
2022-08-29T23:31:13.384Z,21.47
2022-08-29T23:33:39.722Z,21.45
2022-08-29T23:36:06.409Z,21.44
2022-08-29T23:38:33.226Z,21.44
2022-08-29T23:40:59.467Z,21.41
2022-08-29T23:43:26.029Z,21.41
2022-08-29T23:45:52.959Z,21.38
2022-08-29T23:48:23.067Z,21.37
2022-08-29T23:50:53.886Z,21.36
2022-08-29T23:53:20.098Z,21.33
2022-08-29T23:55:48.737Z,21.31
2022-08-29T23:58:14.971Z,21.29
